sensor_id;sensor_type;location;lat;lon;timestamp;temperature;humidity
254;DHT22;590;48.772;8.846;2023-08-06T00:01:28;16.10;85.40
254;DHT22;590;48.772;8.846;2023-08-06T00:03:56;16.00;85.60
254;DHT22;590;48.772;8.846;2023-08-06T00:06:26;15.90;85.60
254;DHT22;590;48.772;8.846;2023-08-06T00:08:54;15.90;85.60
254;DHT22;590;48.772;8.846;2023-08-06T00:11:23;15.80;86.90
254;DHT22;590;48.772;8.846;2023-08-06T00:13:51;15.80;87.60
254;DHT22;590;48.772;8.846;2023-08-06T00:16:19;15.70;87.20
254;DHT22;590;48.772;8.846;2023-08-06T00:18:48;15.60;87.50
254;DHT22;590;48.772;8.846;2023-08-06T00:21:16;15.50;87.80
254;DHT22;590;48.772;8.846;2023-08-06T00:23:45;15.50;88.30
254;DHT22;590;48.772;8.846;2023-08-06T00:26:13;15.40;90.10
254;DHT22;590;48.772;8.846;2023-08-06T00:28:41;15.40;90.50
254;DHT22;590;48.772;8.846;2023-08-06T00:31:09;15.30;90.80
254;DHT22;590;48.772;8.846;2023-08-06T00:33:38;15.30;90.90
254;DHT22;590;48.772;8.846;2023-08-06T00:36:07;15.30;90.90
254;DHT22;590;48.772;8.846;2023-08-06T00:38:36;15.30;90.30
254;DHT22;590;48.772;8.846;2023-08-06T00:41:04;15.30;90.00
254;DHT22;590;48.772;8.846;2023-08-06T00:43:32;15.30;90.10
254;DHT22;590;48.772;8.846;2023-08-06T00:46:00;15.20;90.20
254;DHT22;590;48.772;8.846;2023-08-06T00:48:28;15.10;90.60
254;DHT22;590;48.772;8.846;2023-08-06T00:50:56;15.10;90.80
254;DHT22;590;48.772;8.846;2023-08-06T00:53:26;15.00;91.70
254;DHT22;590;48.772;8.846;2023-08-06T00:55:54;15.10;92.60
254;DHT22;590;48.772;8.846;2023-08-06T00:58:25;15.10;93.50
254;DHT22;590;48.772;8.846;2023-08-06T01:00:53;15.10;93.70
254;DHT22;590;48.772;8.846;2023-08-06T01:03:22;15.20;93.50
254;DHT22;590;48.772;8.846;2023-08-06T01:05:50;15.30;93.20
254;DHT22;590;48.772;8.846;2023-08-06T01:08:28;15.30;92.80
254;DHT22;590;48.772;8.846;2023-08-06T01:11:08;15.30;92.40
254;DHT22;590;48.772;8.846;2023-08-06T01:13:43;15.30;92.20
254;DHT22;590;48.772;8.846;2023-08-06T01:16:15;15.30;92.20
254;DHT22;590;48.772;8.846;2023-08-06T01:18:44;15.30;92.10
254;DHT22;590;48.772;8.846;2023-08-06T01:21:14;15.30;92.00
254;DHT22;590;48.772;8.846;2023-08-06T01:23:43;15.30;91.80
254;DHT22;590;48.772;8.846;2023-08-06T01:29:18;15.20;91.90
254;DHT22;590;48.772;8.846;2023-08-06T01:31:51;15.20;92.00
254;DHT22;590;48.772;8.846;2023-08-06T01:34:22;15.20;92.20
254;DHT22;590;48.772;8.846;2023-08-06T01:36:52;15.20;92.20
254;DHT22;590;48.772;8.846;2023-08-06T01:39:21;15.20;92.10
254;DHT22;590;48.772;8.846;2023-08-06T01:41:49;15.10;92.20
254;DHT22;590;48.772;8.846;2023-08-06T01:44:18;15.10;92.10
254;DHT22;590;48.772;8.846;2023-08-06T01:46:46;15.10;92.00
254;DHT22;590;48.772;8.846;2023-08-06T01:49:14;15.10;92.10
254;DHT22;590;48.772;8.846;2023-08-06T01:51:42;15.10;91.90
254;DHT22;590;48.772;8.846;2023-08-06T01:54:11;15.10;91.70
254;DHT22;590;48.772;8.846;2023-08-06T01:56:39;15.10;91.60
254;DHT22;590;48.772;8.846;2023-08-06T01:59:07;15.20;91.40
254;DHT22;590;48.772;8.846;2023-08-06T02:01:41;15.20;91.20
254;DHT22;590;48.772;8.846;2023-08-06T02:04:09;15.20;91.00
254;DHT22;590;48.772;8.846;2023-08-06T02:06:37;15.20;90.90
254;DHT22;590;48.772;8.846;2023-08-06T02:09:05;15.10;90.80
254;DHT22;590;48.772;8.846;2023-08-06T02:11:35;15.20;90.90
254;DHT22;590;48.772;8.846;2023-08-06T02:14:03;15.20;90.80
254;DHT22;590;48.772;8.846;2023-08-06T02:16:31;15.10;90.70
254;DHT22;590;48.772;8.846;2023-08-06T02:18:59;15.20;90.60
254;DHT22;590;48.772;8.846;2023-08-06T02:21:27;15.20;90.30
254;DHT22;590;48.772;8.846;2023-08-06T02:23:55;15.20;90.10
254;DHT22;590;48.772;8.846;2023-08-06T02:26:23;15.20;90.20
254;DHT22;590;48.772;8.846;2023-08-06T02:28:53;15.30;90.20
254;DHT22;590;48.772;8.846;2023-08-06T02:31:21;15.30;90.20
254;DHT22;590;48.772;8.846;2023-08-06T02:33:49;15.30;90.00
254;DHT22;590;48.772;8.846;2023-08-06T02:36:17;15.30;89.80
254;DHT22;590;48.772;8.846;2023-08-06T02:38:45;15.40;89.40
254;DHT22;590;48.772;8.846;2023-08-06T02:41:13;15.40;88.60
254;DHT22;590;48.772;8.846;2023-08-06T02:43:41;15.40;88.30
254;DHT22;590;48.772;8.846;2023-08-06T02:46:10;15.40;88.20
254;DHT22;590;48.772;8.846;2023-08-06T02:48:38;15.50;88.30
254;DHT22;590;48.772;8.846;2023-08-06T02:51:06;15.50;87.80
254;DHT22;590;48.772;8.846;2023-08-06T02:53:34;15.50;87.30
254;DHT22;590;48.772;8.846;2023-08-06T02:56:03;15.50;86.90
254;DHT22;590;48.772;8.846;2023-08-06T02:58:31;15.60;86.80
254;DHT22;590;48.772;8.846;2023-08-06T03:01:00;15.60;86.80
254;DHT22;590;48.772;8.846;2023-08-06T03:03:31;15.60;86.30
254;DHT22;590;48.772;8.846;2023-08-06T03:06:00;15.60;86.20
254;DHT22;590;48.772;8.846;2023-08-06T03:08:28;15.60;86.20
254;DHT22;590;48.772;8.846;2023-08-06T03:10:56;15.60;86.10
254;DHT22;590;48.772;8.846;2023-08-06T03:13:24;15.70;86.20
254;DHT22;590;48.772;8.846;2023-08-06T03:15:53;15.80;86.70
254;DHT22;590;48.772;8.846;2023-08-06T03:18:21;15.80;87.20
254;DHT22;590;48.772;8.846;2023-08-06T03:20:51;15.80;87.80
254;DHT22;590;48.772;8.846;2023-08-06T03:23:19;15.80;88.50
254;DHT22;590;48.772;8.846;2023-08-06T03:25:48;15.80;89.10
254;DHT22;590;48.772;8.846;2023-08-06T03:28:16;15.80;89.30
254;DHT22;590;48.772;8.846;2023-08-06T03:30:44;15.80;89.50
254;DHT22;590;48.772;8.846;2023-08-06T03:33:12;15.80;89.20
254;DHT22;590;48.772;8.846;2023-08-06T03:35:40;15.80;90.20
254;DHT22;590;48.772;8.846;2023-08-06T03:38:09;15.80;90.90
254;DHT22;590;48.772;8.846;2023-08-06T03:40:37;15.80;91.30
254;DHT22;590;48.772;8.846;2023-08-06T03:43:05;15.80;92.00
254;DHT22;590;48.772;8.846;2023-08-06T03:45:33;15.80;92.60
254;DHT22;590;48.772;8.846;2023-08-06T03:48:02;15.80;93.10
254;DHT22;590;48.772;8.846;2023-08-06T03:50:30;15.80;93.80
254;DHT22;590;48.772;8.846;2023-08-06T03:52:58;15.80;94.80
254;DHT22;590;48.772;8.846;2023-08-06T03:55:27;15.80;95.00
254;DHT22;590;48.772;8.846;2023-08-06T03:57:55;15.70;95.20
254;DHT22;590;48.772;8.846;2023-08-06T04:00:24;15.70;96.10
254;DHT22;590;48.772;8.846;2023-08-06T04:02:52;15.70;96.70
254;DHT22;590;48.772;8.846;2023-08-06T04:05:20;15.70;97.30
254;DHT22;590;48.772;8.846;2023-08-06T04:07:48;15.70;97.80
254;DHT22;590;48.772;8.846;2023-08-06T04:10:16;15.70;97.90
254;DHT22;590;48.772;8.846;2023-08-06T04:12:45;15.70;98.10
254;DHT22;590;48.772;8.846;2023-08-06T04:15:13;15.70;98.30
254;DHT22;590;48.772;8.846;2023-08-06T04:17:41;15.70;98.50
254;DHT22;590;48.772;8.846;2023-08-06T04:20:10;15.70;98.80
254;DHT22;590;48.772;8.846;2023-08-06T04:22:38;15.70;98.80
254;DHT22;590;48.772;8.846;2023-08-06T04:25:06;15.70;98.50
254;DHT22;590;48.772;8.846;2023-08-06T04:27:34;15.70;98.10
254;DHT22;590;48.772;8.846;2023-08-06T04:30:06;15.70;97.30
254;DHT22;590;48.772;8.846;2023-08-06T04:32:36;15.70;96.80
254;DHT22;590;48.772;8.846;2023-08-06T04:35:05;15.60;96.30
254;DHT22;590;48.772;8.846;2023-08-06T04:37:33;15.60;96.50
254;DHT22;590;48.772;8.846;2023-08-06T04:40:04;15.60;96.30
254;DHT22;590;48.772;8.846;2023-08-06T04:42:32;15.60;96.10
254;DHT22;590;48.772;8.846;2023-08-06T04:45:01;15.60;96.00
254;DHT22;590;48.772;8.846;2023-08-06T04:47:30;15.60;96.30
254;DHT22;590;48.772;8.846;2023-08-06T04:49:58;15.60;96.20
254;DHT22;590;48.772;8.846;2023-08-06T04:52:26;15.70;96.60
254;DHT22;590;48.772;8.846;2023-08-06T04:54:55;15.80;96.20
254;DHT22;590;48.772;8.846;2023-08-06T04:57:23;16.20;97.30
254;DHT22;590;48.772;8.846;2023-08-06T04:59:51;17.60;93.40
254;DHT22;590;48.772;8.846;2023-08-06T05:02:19;19.50;74.60
254;DHT22;590;48.772;8.846;2023-08-06T05:04:49;21.40;58.90
254;DHT22;590;48.772;8.846;2023-08-06T05:07:17;23.30;42.40
254;DHT22;590;48.772;8.846;2023-08-06T05:09:45;24.60;31.10
254;DHT22;590;48.772;8.846;2023-08-06T05:12:13;25.70;24.00
254;DHT22;590;48.772;8.846;2023-08-06T05:14:41;26.10;17.40
254;DHT22;590;48.772;8.846;2023-08-06T05:17:09;25.50;16.20
254;DHT22;590;48.772;8.846;2023-08-06T05:19:37;24.70;17.90
254;DHT22;590;48.772;8.846;2023-08-06T05:22:07;23.70;20.50
254;DHT22;590;48.772;8.846;2023-08-06T05:24:35;22.80;23.40
254;DHT22;590;48.772;8.846;2023-08-06T05:27:04;22.00;27.70
254;DHT22;590;48.772;8.846;2023-08-06T05:29:32;21.20;31.40
254;DHT22;590;48.772;8.846;2023-08-06T05:32:00;20.60;34.90
254;DHT22;590;48.772;8.846;2023-08-06T05:34:28;20.10;39.80
254;DHT22;590;48.772;8.846;2023-08-06T05:36:56;19.60;44.00
254;DHT22;590;48.772;8.846;2023-08-06T05:39:25;19.10;49.40
254;DHT22;590;48.772;8.846;2023-08-06T05:41:53;18.80;54.50
254;DHT22;590;48.772;8.846;2023-08-06T05:44:23;18.60;60.70
254;DHT22;590;48.772;8.846;2023-08-06T05:46:51;18.30;64.40
254;DHT22;590;48.772;8.846;2023-08-06T05:49:20;18.10;65.70
254;DHT22;590;48.772;8.846;2023-08-06T05:51:48;17.90;68.10
254;DHT22;590;48.772;8.846;2023-08-06T05:54:17;17.70;69.60
254;DHT22;590;48.772;8.846;2023-08-06T05:56:46;17.60;71.00
254;DHT22;590;48.772;8.846;2023-08-06T05:59:14;17.40;72.30
254;DHT22;590;48.772;8.846;2023-08-06T06:01:43;17.30;74.50
254;DHT22;590;48.772;8.846;2023-08-06T06:04:11;17.30;77.20
254;DHT22;590;48.772;8.846;2023-08-06T06:06:39;17.30;76.00
254;DHT22;590;48.772;8.846;2023-08-06T06:09:08;17.30;76.40
254;DHT22;590;48.772;8.846;2023-08-06T06:11:36;17.30;76.50
254;DHT22;590;48.772;8.846;2023-08-06T06:14:06;17.30;76.80
254;DHT22;590;48.772;8.846;2023-08-06T06:16:34;17.20;77.20
254;DHT22;590;48.772;8.846;2023-08-06T06:19:02;17.20;77.50
254;DHT22;590;48.772;8.846;2023-08-06T06:21:30;17.10;77.50
254;DHT22;590;48.772;8.846;2023-08-06T06:23:58;17.10;77.80
254;DHT22;590;48.772;8.846;2023-08-06T06:26:26;17.10;78.30
254;DHT22;590;48.772;8.846;2023-08-06T06:28:55;17.20;78.90
254;DHT22;590;48.772;8.846;2023-08-06T06:31:24;17.20;77.20
254;DHT22;590;48.772;8.846;2023-08-06T06:33:52;17.20;77.10
254;DHT22;590;48.772;8.846;2023-08-06T06:36:21;17.20;77.60
254;DHT22;590;48.772;8.846;2023-08-06T06:38:50;17.20;77.90
254;DHT22;590;48.772;8.846;2023-08-06T06:41:18;17.10;78.10
254;DHT22;590;48.772;8.846;2023-08-06T06:43:46;17.10;77.40
254;DHT22;590;48.772;8.846;2023-08-06T06:46:14;17.00;77.90
254;DHT22;590;48.772;8.846;2023-08-06T06:48:44;17.00;78.20
254;DHT22;590;48.772;8.846;2023-08-06T06:51:12;16.90;78.10
254;DHT22;590;48.772;8.846;2023-08-06T06:53:40;16.90;79.50
254;DHT22;590;48.772;8.846;2023-08-06T06:56:08;16.90;79.90
254;DHT22;590;48.772;8.846;2023-08-06T06:58:36;16.90;80.40
254;DHT22;590;48.772;8.846;2023-08-06T07:01:05;16.90;79.90
254;DHT22;590;48.772;8.846;2023-08-06T07:03:33;16.90;81.30
254;DHT22;590;48.772;8.846;2023-08-06T07:06:03;17.00;81.70
254;DHT22;590;48.772;8.846;2023-08-06T07:08:32;17.00;82.40
254;DHT22;590;48.772;8.846;2023-08-06T07:11:01;17.10;82.10
254;DHT22;590;48.772;8.846;2023-08-06T07:13:29;17.20;82.60
254;DHT22;590;48.772;8.846;2023-08-06T07:15:57;17.30;82.20
254;DHT22;590;48.772;8.846;2023-08-06T07:18:25;17.40;80.30
254;DHT22;590;48.772;8.846;2023-08-06T07:20:54;17.40;77.70
254;DHT22;590;48.772;8.846;2023-08-06T07:23:25;17.40;77.40
254;DHT22;590;48.772;8.846;2023-08-06T07:25:53;17.40;78.00
254;DHT22;590;48.772;8.846;2023-08-06T07:28:21;17.40;77.00
254;DHT22;590;48.772;8.846;2023-08-06T07:30:49;17.40;77.50
254;DHT22;590;48.772;8.846;2023-08-06T07:33:17;17.30;78.00
254;DHT22;590;48.772;8.846;2023-08-06T07:35:45;17.30;78.00
254;DHT22;590;48.772;8.846;2023-08-06T07:38:13;17.30;79.60
254;DHT22;590;48.772;8.846;2023-08-06T07:40:43;17.30;79.10
254;DHT22;590;48.772;8.846;2023-08-06T07:43:11;17.40;78.70
254;DHT22;590;48.772;8.846;2023-08-06T07:45:39;17.50;79.50
254;DHT22;590;48.772;8.846;2023-08-06T07:48:07;17.60;78.40
254;DHT22;590;48.772;8.846;2023-08-06T07:50:35;17.70;78.00
254;DHT22;590;48.772;8.846;2023-08-06T07:53:03;17.80;78.50
254;DHT22;590;48.772;8.846;2023-08-06T07:55:31;17.90;78.10
254;DHT22;590;48.772;8.846;2023-08-06T07:58:00;18.10;77.10
254;DHT22;590;48.772;8.846;2023-08-06T08:00:28;18.20;76.30
254;DHT22;590;48.772;8.846;2023-08-06T08:02:56;18.30;75.20
254;DHT22;590;48.772;8.846;2023-08-06T08:05:24;18.40;74.40
254;DHT22;590;48.772;8.846;2023-08-06T08:07:52;18.60;74.30
254;DHT22;590;48.772;8.846;2023-08-06T08:10:21;18.70;73.90
254;DHT22;590;48.772;8.846;2023-08-06T08:12:49;18.80;71.90
254;DHT22;590;48.772;8.846;2023-08-06T08:15:18;18.80;69.20
254;DHT22;590;48.772;8.846;2023-08-06T08:17:46;18.90;68.50
254;DHT22;590;48.772;8.846;2023-08-06T08:20:16;18.90;69.00
254;DHT22;590;48.772;8.846;2023-08-06T08:22:44;19.00;68.30
254;DHT22;590;48.772;8.846;2023-08-06T08:25:12;19.00;67.60
254;DHT22;590;48.772;8.846;2023-08-06T08:27:40;19.00;66.30
254;DHT22;590;48.772;8.846;2023-08-06T08:30:09;19.10;66.70
254;DHT22;590;48.772;8.846;2023-08-06T08:32:39;19.20;66.40
254;DHT22;590;48.772;8.846;2023-08-06T08:35:07;19.40;65.20
254;DHT22;590;48.772;8.846;2023-08-06T08:37:36;19.70;64.60
254;DHT22;590;48.772;8.846;2023-08-06T08:40:05;20.00;60.60
254;DHT22;590;48.772;8.846;2023-08-06T08:42:33;20.00;58.90
254;DHT22;590;48.772;8.846;2023-08-06T08:45:02;20.00;59.60
254;DHT22;590;48.772;8.846;2023-08-06T08:47:32;20.00;59.60
254;DHT22;590;48.772;8.846;2023-08-06T08:50:01;20.00;60.10
254;DHT22;590;48.772;8.846;2023-08-06T08:52:31;20.00;59.70
254;DHT22;590;48.772;8.846;2023-08-06T08:55:01;20.10;60.40
254;DHT22;590;48.772;8.846;2023-08-06T08:57:30;20.20;58.30
254;DHT22;590;48.772;8.846;2023-08-06T08:59:58;20.20;57.00
254;DHT22;590;48.772;8.846;2023-08-06T09:02:28;20.40;55.80
254;DHT22;590;48.772;8.846;2023-08-06T09:04:58;20.50;54.10
254;DHT22;590;48.772;8.846;2023-08-06T09:07:32;20.50;54.60
254;DHT22;590;48.772;8.846;2023-08-06T09:10:03;20.50;54.50
254;DHT22;590;48.772;8.846;2023-08-06T09:12:32;20.50;55.70
254;DHT22;590;48.772;8.846;2023-08-06T09:15:00;20.50;55.80
254;DHT22;590;48.772;8.846;2023-08-06T09:17:30;20.40;54.40
254;DHT22;590;48.772;8.846;2023-08-06T09:19:58;20.40;55.00
254;DHT22;590;48.772;8.846;2023-08-06T09:22:35;20.30;56.30
254;DHT22;590;48.772;8.846;2023-08-06T09:25:03;20.20;56.10
254;DHT22;590;48.772;8.846;2023-08-06T09:27:36;20.10;56.90
254;DHT22;590;48.772;8.846;2023-08-06T09:30:06;20.10;57.70
254;DHT22;590;48.772;8.846;2023-08-06T09:32:48;20.10;56.70
254;DHT22;590;48.772;8.846;2023-08-06T09:35:18;20.10;55.40
254;DHT22;590;48.772;8.846;2023-08-06T09:37:48;20.00;55.70
254;DHT22;590;48.772;8.846;2023-08-06T09:40:26;20.00;56.70
254;DHT22;590;48.772;8.846;2023-08-06T09:42:55;19.90;56.70
254;DHT22;590;48.772;8.846;2023-08-06T09:45:23;19.80;57.50
254;DHT22;590;48.772;8.846;2023-08-06T09:47:56;19.70;57.90
254;DHT22;590;48.772;8.846;2023-08-06T09:50:29;19.50;57.50
254;DHT22;590;48.772;8.846;2023-08-06T09:53:00;19.50;58.70
254;DHT22;590;48.772;8.846;2023-08-06T09:55:28;19.40;58.50
254;DHT22;590;48.772;8.846;2023-08-06T09:57:56;19.40;60.10
254;DHT22;590;48.772;8.846;2023-08-06T10:00:26;19.30;61.20
254;DHT22;590;48.772;8.846;2023-08-06T10:02:55;19.40;62.40
254;DHT22;590;48.772;8.846;2023-08-06T10:05:27;19.50;61.20
254;DHT22;590;48.772;8.846;2023-08-06T10:07:58;19.40;62.40
254;DHT22;590;48.772;8.846;2023-08-06T10:10:28;19.40;63.70
254;DHT22;590;48.772;8.846;2023-08-06T10:12:58;19.40;62.80
254;DHT22;590;48.772;8.846;2023-08-06T10:15:30;19.40;62.60
254;DHT22;590;48.772;8.846;2023-08-06T10:17:59;19.50;62.10
254;DHT22;590;48.772;8.846;2023-08-06T10:20:33;19.60;61.80
254;DHT22;590;48.772;8.846;2023-08-06T10:23:03;19.70;60.10
254;DHT22;590;48.772;8.846;2023-08-06T10:25:33;19.70;59.50
254;DHT22;590;48.772;8.846;2023-08-06T10:28:07;19.60;60.50
254;DHT22;590;48.772;8.846;2023-08-06T10:30:42;19.70;61.20
254;DHT22;590;48.772;8.846;2023-08-06T10:33:11;19.80;60.60
254;DHT22;590;48.772;8.846;2023-08-06T10:35:41;19.80;61.00
254;DHT22;590;48.772;8.846;2023-08-06T10:38:14;19.80;61.00
254;DHT22;590;48.772;8.846;2023-08-06T10:40:48;19.70;60.00
254;DHT22;590;48.772;8.846;2023-08-06T10:43:27;19.60;57.30
254;DHT22;590;48.772;8.846;2023-08-06T10:45:56;19.50;58.30
254;DHT22;590;48.772;8.846;2023-08-06T10:48:30;19.40;56.40
254;DHT22;590;48.772;8.846;2023-08-06T10:51:00;19.30;56.40
254;DHT22;590;48.772;8.846;2023-08-06T10:53:30;19.10;57.50
254;DHT22;590;48.772;8.846;2023-08-06T10:56:00;19.00;57.40
254;DHT22;590;48.772;8.846;2023-08-06T10:58:31;18.90;58.80
254;DHT22;590;48.772;8.846;2023-08-06T11:01:00;18.80;59.10
254;DHT22;590;48.772;8.846;2023-08-06T11:03:28;18.70;58.50
254;DHT22;590;48.772;8.846;2023-08-06T11:05:57;18.50;60.50
254;DHT22;590;48.772;8.846;2023-08-06T11:08:25;18.50;60.10
254;DHT22;590;48.772;8.846;2023-08-06T11:10:55;18.40;61.10
254;DHT22;590;48.772;8.846;2023-08-06T11:13:30;18.40;59.50
254;DHT22;590;48.772;8.846;2023-08-06T11:15:59;18.30;59.10
254;DHT22;590;48.772;8.846;2023-08-06T11:18:27;18.30;58.80
254;DHT22;590;48.772;8.846;2023-08-06T11:20:58;18.30;58.30
254;DHT22;590;48.772;8.846;2023-08-06T11:23:26;18.20;58.30
254;DHT22;590;48.772;8.846;2023-08-06T11:25:56;18.00;58.30
254;DHT22;590;48.772;8.846;2023-08-06T11:28:25;17.90;59.00
254;DHT22;590;48.772;8.846;2023-08-06T11:30:53;17.80;59.30
254;DHT22;590;48.772;8.846;2023-08-06T11:33:24;17.70;60.30
254;DHT22;590;48.772;8.846;2023-08-06T11:35:54;17.60;60.50
254;DHT22;590;48.772;8.846;2023-08-06T11:38:24;17.60;61.80
254;DHT22;590;48.772;8.846;2023-08-06T11:40:53;17.50;62.80
254;DHT22;590;48.772;8.846;2023-08-06T11:43:23;17.40;64.00
254;DHT22;590;48.772;8.846;2023-08-06T11:45:51;17.30;63.20
254;DHT22;590;48.772;8.846;2023-08-06T11:48:21;17.30;63.80
254;DHT22;590;48.772;8.846;2023-08-06T11:50:49;17.30;62.90
254;DHT22;590;48.772;8.846;2023-08-06T11:53:21;17.40;64.70
254;DHT22;590;48.772;8.846;2023-08-06T11:55:50;17.50;65.20
254;DHT22;590;48.772;8.846;2023-08-06T11:58:18;17.60;64.20
254;DHT22;590;48.772;8.846;2023-08-06T12:00:49;17.70;62.90
254;DHT22;590;48.772;8.846;2023-08-06T12:03:19;17.80;61.80
254;DHT22;590;48.772;8.846;2023-08-06T12:05:47;17.90;62.00
254;DHT22;590;48.772;8.846;2023-08-06T12:08:15;17.80;61.40
254;DHT22;590;48.772;8.846;2023-08-06T12:10:43;17.70;60.50
254;DHT22;590;48.772;8.846;2023-08-06T12:13:13;17.60;60.90
254;DHT22;590;48.772;8.846;2023-08-06T12:15:41;17.60;61.30
254;DHT22;590;48.772;8.846;2023-08-06T12:18:10;17.60;61.30
254;DHT22;590;48.772;8.846;2023-08-06T12:20:38;17.70;60.80
254;DHT22;590;48.772;8.846;2023-08-06T12:23:06;18.00;61.20
254;DHT22;590;48.772;8.846;2023-08-06T12:25:36;18.10;62.00
254;DHT22;590;48.772;8.846;2023-08-06T12:28:04;18.40;59.40
254;DHT22;590;48.772;8.846;2023-08-06T12:30:34;18.60;58.50
254;DHT22;590;48.772;8.846;2023-08-06T12:33:02;18.80;57.90
254;DHT22;590;48.772;8.846;2023-08-06T12:35:31;18.90;58.20
254;DHT22;590;48.772;8.846;2023-08-06T12:37:59;19.10;57.50
254;DHT22;590;48.772;8.846;2023-08-06T12:40:27;19.30;54.60
254;DHT22;590;48.772;8.846;2023-08-06T12:43:04;19.30;53.80
254;DHT22;590;48.772;8.846;2023-08-06T12:45:32;19.30;53.10
254;DHT22;590;48.772;8.846;2023-08-06T12:48:00;19.30;53.50
254;DHT22;590;48.772;8.846;2023-08-06T12:50:28;19.30;52.00
254;DHT22;590;48.772;8.846;2023-08-06T12:52:58;19.40;50.90
254;DHT22;590;48.772;8.846;2023-08-06T12:55:26;19.60;47.90
254;DHT22;590;48.772;8.846;2023-08-06T12:57:58;19.80;48.00
254;DHT22;590;48.772;8.846;2023-08-06T13:00:26;20.00;46.00
254;DHT22;590;48.772;8.846;2023-08-06T13:02:54;20.00;42.50
254;DHT22;590;48.772;8.846;2023-08-06T13:05:23;20.10;42.30
254;DHT22;590;48.772;8.846;2023-08-06T13:07:51;20.20;39.60
254;DHT22;590;48.772;8.846;2023-08-06T13:10:20;20.20;38.50
254;DHT22;590;48.772;8.846;2023-08-06T13:12:49;20.30;39.90
254;DHT22;590;48.772;8.846;2023-08-06T13:15:17;20.40;38.60
254;DHT22;590;48.772;8.846;2023-08-06T13:17:47;20.50;38.60
254;DHT22;590;48.772;8.846;2023-08-06T13:20:16;20.60;37.80
254;DHT22;590;48.772;8.846;2023-08-06T13:22:47;20.50;37.70
254;DHT22;590;48.772;8.846;2023-08-06T13:25:18;20.50;37.30
254;DHT22;590;48.772;8.846;2023-08-06T13:27:47;20.40;37.00
254;DHT22;590;48.772;8.846;2023-08-06T13:30:15;20.30;36.90
254;DHT22;590;48.772;8.846;2023-08-06T13:32:44;20.20;36.50
254;DHT22;590;48.772;8.846;2023-08-06T13:35:13;20.20;37.00
254;DHT22;590;48.772;8.846;2023-08-06T13:37:41;20.20;36.20
254;DHT22;590;48.772;8.846;2023-08-06T13:40:09;20.30;36.20
254;DHT22;590;48.772;8.846;2023-08-06T13:42:37;20.30;35.30
254;DHT22;590;48.772;8.846;2023-08-06T13:45:08;20.40;34.90
254;DHT22;590;48.772;8.846;2023-08-06T13:47:36;20.50;34.10
254;DHT22;590;48.772;8.846;2023-08-06T13:50:05;20.60;33.30
254;DHT22;590;48.772;8.846;2023-08-06T13:52:33;20.60;31.90
254;DHT22;590;48.772;8.846;2023-08-06T13:55:02;20.70;32.80
254;DHT22;590;48.772;8.846;2023-08-06T13:57:31;20.80;31.50
254;DHT22;590;48.772;8.846;2023-08-06T13:59:59;20.80;30.90
254;DHT22;590;48.772;8.846;2023-08-06T14:02:28;20.80;30.20
254;DHT22;590;48.772;8.846;2023-08-06T14:04:56;20.90;31.00
254;DHT22;590;48.772;8.846;2023-08-06T14:07:24;20.80;29.20
254;DHT22;590;48.772;8.846;2023-08-06T14:09:52;20.70;31.50
254;DHT22;590;48.772;8.846;2023-08-06T14:12:21;20.60;31.90
254;DHT22;590;48.772;8.846;2023-08-06T14:14:48;20.50;34.00
254;DHT22;590;48.772;8.846;2023-08-06T14:17:17;20.50;31.80
254;DHT22;590;48.772;8.846;2023-08-06T14:19:46;20.60;32.60
254;DHT22;590;48.772;8.846;2023-08-06T14:22:14;20.60;30.90
254;DHT22;590;48.772;8.846;2023-08-06T14:24:42;20.50;31.80
254;DHT22;590;48.772;8.846;2023-08-06T14:27:10;20.20;35.80
254;DHT22;590;48.772;8.846;2023-08-06T14:29:38;19.90;41.20
254;DHT22;590;48.772;8.846;2023-08-06T14:32:07;19.50;43.10
254;DHT22;590;48.772;8.846;2023-08-06T14:34:35;19.30;48.40
254;DHT22;590;48.772;8.846;2023-08-06T14:37:04;19.30;49.80
254;DHT22;590;48.772;8.846;2023-08-06T14:39:32;19.30;49.60
254;DHT22;590;48.772;8.846;2023-08-06T14:42:00;19.10;49.30
254;DHT22;590;48.772;8.846;2023-08-06T14:44:29;19.00;48.70
254;DHT22;590;48.772;8.846;2023-08-06T14:46:57;18.90;50.20
254;DHT22;590;48.772;8.846;2023-08-06T14:49:25;18.80;54.50
254;DHT22;590;48.772;8.846;2023-08-06T14:51:53;18.80;56.60
254;DHT22;590;48.772;8.846;2023-08-06T14:54:22;18.80;55.80
254;DHT22;590;48.772;8.846;2023-08-06T14:56:50;18.90;52.70
254;DHT22;590;48.772;8.846;2023-08-06T14:59:19;19.10;53.90
254;DHT22;590;48.772;8.846;2023-08-06T15:01:47;19.30;56.00
254;DHT22;590;48.772;8.846;2023-08-06T15:04:15;19.30;53.50
254;DHT22;590;48.772;8.846;2023-08-06T15:06:43;19.40;53.70
254;DHT22;590;48.772;8.846;2023-08-06T15:09:11;19.40;51.20
254;DHT22;590;48.772;8.846;2023-08-06T15:11:40;19.30;47.80
254;DHT22;590;48.772;8.846;2023-08-06T15:14:08;19.30;47.90
254;DHT22;590;48.772;8.846;2023-08-06T15:16:36;19.20;46.90
254;DHT22;590;48.772;8.846;2023-08-06T15:19:04;19.20;47.50
254;DHT22;590;48.772;8.846;2023-08-06T15:21:32;19.10;46.20
254;DHT22;590;48.772;8.846;2023-08-06T15:24:01;19.10;48.60
254;DHT22;590;48.772;8.846;2023-08-06T15:26:29;19.10;47.00
254;DHT22;590;48.772;8.846;2023-08-06T15:28:58;19.10;47.90
254;DHT22;590;48.772;8.846;2023-08-06T15:31:35;19.10;47.70
254;DHT22;590;48.772;8.846;2023-08-06T15:34:04;19.10;46.70
254;DHT22;590;48.772;8.846;2023-08-06T15:36:32;19.10;44.60
254;DHT22;590;48.772;8.846;2023-08-06T15:39:00;19.00;45.60
254;DHT22;590;48.772;8.846;2023-08-06T15:41:30;19.00;44.30
254;DHT22;590;48.772;8.846;2023-08-06T15:43:59;18.90;43.70
254;DHT22;590;48.772;8.846;2023-08-06T15:46:27;18.90;44.50
254;DHT22;590;48.772;8.846;2023-08-06T15:48:55;18.80;44.20
254;DHT22;590;48.772;8.846;2023-08-06T15:51:23;18.70;47.70
254;DHT22;590;48.772;8.846;2023-08-06T15:53:51;18.80;50.90
254;DHT22;590;48.772;8.846;2023-08-06T15:56:19;18.70;49.40
254;DHT22;590;48.772;8.846;2023-08-06T15:58:48;18.60;50.20
254;DHT22;590;48.772;8.846;2023-08-06T16:01:17;18.50;51.80
254;DHT22;590;48.772;8.846;2023-08-06T16:03:45;18.40;53.00
254;DHT22;590;48.772;8.846;2023-08-06T16:06:13;18.40;55.00
254;DHT22;590;48.772;8.846;2023-08-06T16:08:41;18.30;54.90
254;DHT22;590;48.772;8.846;2023-08-06T16:11:09;18.10;53.90
254;DHT22;590;48.772;8.846;2023-08-06T16:13:37;18.00;55.30
254;DHT22;590;48.772;8.846;2023-08-06T16:16:05;17.90;55.20
254;DHT22;590;48.772;8.846;2023-08-06T16:18:34;17.80;56.10
254;DHT22;590;48.772;8.846;2023-08-06T16:21:02;17.80;56.30
254;DHT22;590;48.772;8.846;2023-08-06T16:23:30;17.80;56.00
254;DHT22;590;48.772;8.846;2023-08-06T16:25:58;17.80;55.10
254;DHT22;590;48.772;8.846;2023-08-06T16:28:27;17.90;56.60
254;DHT22;590;48.772;8.846;2023-08-06T16:30:55;17.90;53.50
254;DHT22;590;48.772;8.846;2023-08-06T16:33:23;17.90;52.10
254;DHT22;590;48.772;8.846;2023-08-06T16:35:53;17.80;51.50
254;DHT22;590;48.772;8.846;2023-08-06T16:38:21;17.70;51.20
254;DHT22;590;48.772;8.846;2023-08-06T16:40:52;17.60;50.50
254;DHT22;590;48.772;8.846;2023-08-06T16:43:22;17.50;51.20
254;DHT22;590;48.772;8.846;2023-08-06T16:45:52;17.30;51.20
254;DHT22;590;48.772;8.846;2023-08-06T16:48:21;17.20;51.50